Larned, Kansas
Current Conditions -  °F | °C
As of 4:55 PM on Thursday 18 Dec 2014 (Local Time) from KGBD Reporting Station
Overcast Overcast  
Wind Chill: 32°   Ceiling: 2500
Heat Index: 32°   Visibility: 5mi
Dew Point: 25°   Wind: 3mph
Humidity: 75%   Direction: 80°E
Pressure: 30.16"   Gusts: NA
Location:  38.18°N, 99.1°W
Report Text: KGBD 182255Z AUTO 08003KT 5SM OVC025 00/M04 A3016 RMK AO1 P0002
Loading
Personal Weather Stations






























Interactive Weather Map New forecast layout! Learn more

10-Day Weather Forecast

Advertisements
Track Severe Weather on mobile